地図

経路データ

SID SEASON NUMBER BASIN SUBBASIN NAME ISO_TIME NATURE LAT LON WMO_WIND WMO_PRES WMO_AGENCY TRACK_TYPE DIST2LAND LANDFALL IFLAG USA_AGENCY USA_ATCF_ID USA_LAT USA_LON USA_RECORD USA_STATUS USA_WIND USA_PRES USA_SSHS USA_R34_NE USA_R34_SE USA_R34_SW USA_R34_NW USA_R50_NE USA_R50_SE USA_R50_SW USA_R50_NW USA_R64_NE USA_R64_SE USA_R64_SW USA_R64_NW USA_POCI USA_ROCI USA_RMW USA_EYE TOKYO_LAT TOKYO_LON TOKYO_GRADE TOKYO_WIND TOKYO_PRES TOKYO_R50_DIR TOKYO_R50_LONG TOKYO_R50_SHORT TOKYO_R30_DIR TOKYO_R30_LONG TOKYO_R30_SHORT TOKYO_LAND CMA_LAT CMA_LON CMA_CAT CMA_WIND CMA_PRES HKO_LAT HKO_LON HKO_CAT HKO_WIND HKO_PRES NEWDELHI_LAT NEWDELHI_LON NEWDELHI_GRADE NEWDELHI_WIND NEWDELHI_PRES NEWDELHI_CI NEWDELHI_DP NEWDELHI_POCI REUNION_LAT REUNION_LON REUNION_TYPE REUNION_WIND REUNION_PRES REUNION_TNUM REUNION_CI REUNION_RMW REUNION_R34_NE REUNION_R34_SE REUNION_R34_SW REUNION_R34_NW REUNION_R50_NE REUNION_R50_SE REUNION_R50_SW REUNION_R50_NW REUNION_R64_NE REUNION_R64_SE REUNION_R64_SW REUNION_R64_NW BOM_LAT BOM_LON BOM_TYPE BOM_WIND BOM_PRES BOM_TNUM BOM_CI BOM_RMW BOM_R34_NE BOM_R34_SE BOM_R34_SW BOM_R34_NW BOM_R50_NE BOM_R50_SE BOM_R50_SW BOM_R50_NW BOM_R64_NE BOM_R64_SE BOM_R64_SW BOM_R64_NW BOM_ROCI BOM_POCI BOM_EYE BOM_POS_METHOD BOM_PRES_METHOD NADI_LAT NADI_LON NADI_CAT NADI_WIND NADI_PRES WELLINGTON_LAT WELLINGTON_LON WELLINGTON_WIND WELLINGTON_PRES DS824_LAT DS824_LON DS824_STAGE DS824_WIND DS824_PRES TD9636_LAT TD9636_LON TD9636_STAGE TD9636_WIND TD9636_PRES TD9635_LAT TD9635_LON TD9635_WIND TD9635_PRES TD9635_ROCI NEUMANN_LAT NEUMANN_LON NEUMANN_CLASS NEUMANN_WIND NEUMANN_PRES MLC_LAT MLC_LON MLC_CLASS MLC_WIND MLC_PRES USA_GUST BOM_GUST BOM_GUST_PER REUNION_GUST REUNION_GUST_PER USA_SEAHGT USA_SEARAD_NE USA_SEARAD_SE USA_SEARAD_SW USA_SEARAD_NW STORM_SPEED STORM_DIR
1942317N14095 1942 70 NI BB NOT_NAMED 1942-11-13 00:00:00 TS 14.3000 94.7000 main 160 160 _________O____ -1 14.3000 94.7000 TC 30 9 268
1942317N14095 1942 70 NI BB NOT_NAMED 1942-11-13 03:00:00 TS 14.2853 94.2333 main 169 169 _________PO___ -1 14.2779 93.9999 TC 30 14.3000 94.7000 1 11 271
1942317N14095 1942 70 NI BB NOT_NAMED 1942-11-13 06:00:00 TS 14.3098 93.5815 main 188 188 _________OP___ -1 14.3000 93.3000 TC 30 14.3246 94.0037 1 13 275
1942317N14095 1942 70 NI BB NOT_NAMED 1942-11-13 09:00:00 TS 14.3893 92.9025 main 224 224 _________PP___ -1 14.4048 92.5999 TC 30 14.3686 93.3060 1 13 280
1942317N14095 1942 70 NI BB NOT_NAMED 1942-11-13 12:00:00 TS 14.5266 92.2527 main 264 264 _________OP___ -1 14.6000 91.9000 TC 30 14.4532 92.6054 1 14 285
1942317N14095 1942 70 NI BB NOT_NAMED 1942-11-13 15:00:00 TS 14.7500 91.5314 main 319 319 _________PO___ -1 14.9001 91.1629 TC 31 14.6000 91.9000 1 14 290
1942317N14095 1942 70 NI BB NOT_NAMED 1942-11-13 18:00:00 TS 15.0093 90.8485 main 381 381 _________OP___ -1 15.2000 90.5000 TC 32 14.8186 91.1969 1 13 291
1942317N14095 1942 70 NI BB NOT_NAMED 1942-11-13 21:00:00 TS 15.2339 90.2433 main 437 435 _________PP___ -1 15.3949 89.9449 TC 33 15.0730 90.5418 1 11 291
1942317N14095 1942 70 NI BB NOT_NAMED 1942-11-14 00:00:00 TS 15.4078 89.7953 main 475 475 _________OP___ -1 15.5000 89.6000 TC 34 15.3157 89.9905 1 7 293
1942317N14095 1942 70 NI BB NOT_NAMED 1942-11-14 03:00:00 TS 15.5112 89.5662 main 495 495 _________PO___ -1 15.5224 89.5324 TC 36 15.5000 89.6000 2 3 295
1942317N14095 1942 70 NI BB NOT_NAMED 1942-11-14 06:00:00 TS 15.5319 89.5170 main 506 506 _________OP___ -1 15.5000 89.6000 TC 39 15.5638 89.4340 2 1 293
1942317N14095 1942 70 NI BB NOT_NAMED 1942-11-14 09:00:00 TS 15.5333 89.5134 main 506 495 _________PP___ -1 15.5000 89.6000 TC 42 15.5665 89.4268 2 0 110
1942317N14095 1942 70 NI BB NOT_NAMED 1942-11-14 12:00:00 TS 15.5180 89.5531 main 495 495 _________OP___ -1 15.5000 89.6000 TC 45 15.5361 89.5062 2 1 112
1942317N14095 1942 70 NI BB NOT_NAMED 1942-11-14 15:00:00 TS 15.5000 89.6000 main 495 495 _________PO___ -1 15.5000 89.6000 TC 45 15.5000 89.6000 3 1 120
1942317N14095 1942 70 NI BB NOT_NAMED 1942-11-14 18:00:00 TS 15.4653 89.6423 main 495 484 _________OP___ -1 15.5000 89.6000 TC 45 15.4305 89.6845 3 1 129
1942317N14095 1942 70 NI BB NOT_NAMED 1942-11-14 21:00:00 TS 15.4133 89.7079 main 486 486 _________PP___ -1 15.4549 89.6598 TC 45 15.3717 89.7560 3 0 132
1942317N14095 1942 70 NI BB NOT_NAMED 1942-11-15 00:00:00 TS 15.4385 89.6748 main 486 484 _________OP___ -1 15.5000 89.6000 TC 45 15.3771 89.7495 3 3 308
1942317N14095 1942 70 NI BB NOT_NAMED 1942-11-15 03:00:00 TS 15.6087 89.4486 main 515 514 _________PO___ -1 15.7174 89.2972 TC 45 15.5000 89.6000 3 8 307
1942317N14095 1942 70 NI BB NOT_NAMED 1942-11-15 06:00:00 TS 15.9378 88.9953 main 534 454 _________OP___ -1 16.1000 88.8000 TC 45 15.7757 89.1906 3 13 308
1942317N14095 1942 70 NI BB NOT_NAMED 1942-11-15 09:00:00 TS 16.3925 88.3961 main 454 376 _________PP___ -1 16.6129 88.1505 TC 45 16.1720 88.6417 3 15 310
1942317N14095 1942 70 NI BB NOT_NAMED 1942-11-15 12:00:00 TS 16.9285 87.7734 main 376 305 _________OP___ -1 17.2000 87.5000 TC 45 16.6571 88.0468 3 15 315
1942317N14095 1942 70 NI BB NOT_NAMED 1942-11-15 15:00:00 TS 17.4674 87.2661 main 295 228 _________PO___ -1 17.7348 87.0322 TC 41 17.2000 87.5000 3 14 323
1942317N14095 1942 70 NI BB NOT_NAMED 1942-11-15 18:00:00 TS 17.9998 86.9141 main 228 158 _________OP___ -1 18.3000 86.7000 TC 37 17.7747 87.0747 3 13 332
1942317N14095 1942 70 NI BB NOT_NAMED 1942-11-15 21:00:00 TS 18.5946 86.6433 main 154 84 _________PP___ -1 18.9301 86.4728 TC 33 18.3710 86.7571 3 13 339
1942317N14095 1942 70 NI BB NOT_NAMED 1942-11-16 00:00:00 TS 19.1879 86.4406 main 84 39 _________OP___ -1 19.6000 86.3000 TC 30 18.9818 86.5109 3 11 342
1942317N14095 1942 70 NI BB NOT_NAMED 1942-11-16 03:00:00 NR 19.6000 86.3000 main 39 __________O___ -1 TC 19.6000 86.3000 1 9 343

IBTrACS Databaseについて

本データベースは、米国NOAAが公開する1842年以降の世界の熱帯低気圧のベストトラックデータアーカイブInternational Best Track Archive for Climate Stewardship (IBTrACS)を、ウェブで閲覧しやすい形式に変換したものです。

最終更新日:2021-11-26